Aviation Digital Data Service (ADDS)

Output produced by METARs form (0720 UTC 31 July 2016)
found at http://aviationweather.gov/adds/metars/
 
KRME 310535Z 3106/0106 09008KT P6SM OVC040 
     FM310800 08005KT 3SM -SHRA BR OVC025 
     TEMPO 3110/3114 2SM SHRA BR SCT008 OVC015 
     FM311600 02010KT P6SM SCT025 OVC040 
     FM010300 04005KT P6SM BKN022 OVC035